createdAt,value
2022-11-29T00:02:14.674Z,20.25
2022-11-29T00:04:47.835Z,21.38
2022-11-29T00:09:44.893Z,19.33
2022-11-29T00:12:15.720Z,21.15
2022-11-29T00:14:44.940Z,20.13
2022-11-29T00:17:13.426Z,21.63
2022-11-29T00:19:41.705Z,20.52
2022-11-29T00:22:13.453Z,20.77
2022-11-29T00:24:44.113Z,20.40
2022-11-29T00:27:12.940Z,20.77
2022-11-29T00:29:42.899Z,22.92
2022-11-29T00:32:14.351Z,21.88
2022-11-29T00:34:42.963Z,23.50
2022-11-29T00:37:14.343Z,22.27
2022-11-29T00:39:43.825Z,21.27
2022-11-29T00:42:12.912Z,20.73
2022-11-29T00:44:41.635Z,20.92
2022-11-29T00:47:11.514Z,20.65
2022-11-29T00:49:42.144Z,20.55
2022-11-29T00:52:11.904Z,19.80
2022-11-29T00:54:42.862Z,21.00
2022-11-29T00:57:12.258Z,21.08
2022-11-29T00:59:41.918Z,20.00
2022-11-29T01:02:10.358Z,20.67
2022-11-29T01:04:40.892Z,20.55
2022-11-29T01:07:09.507Z,20.00
2022-11-29T01:09:38.204Z,19.92
2022-11-29T01:12:08.431Z,19.52
2022-11-29T01:14:37.577Z,20.75
2022-11-29T01:17:06.514Z,19.40
2022-11-29T01:19:34.890Z,18.05
2022-11-29T01:22:03.269Z,17.98
2022-11-29T01:24:31.769Z,18.00
2022-11-29T01:27:00.063Z,19.25
2022-11-29T01:29:32.105Z,19.85
2022-11-29T01:32:00.506Z,19.65
2022-11-29T01:34:30.436Z,19.45
2022-11-29T01:36:59.618Z,18.58
2022-11-29T01:39:28.144Z,18.95
2022-11-29T01:41:57.687Z,17.88
2022-11-29T01:45:09.758Z,19.02
2022-11-29T01:47:44.890Z,17.52
2022-11-29T01:50:13.904Z,18.52
2022-11-29T01:52:42.933Z,18.65
2022-11-29T01:55:12.193Z,17.63
2022-11-29T01:57:43.089Z,18.85
2022-11-29T02:00:16.550Z,18.50
2022-11-29T02:02:48.801Z,17.98
2022-11-29T02:05:19.136Z,18.42
2022-11-29T02:07:54.536Z,17.58
2022-11-29T02:10:30.296Z,18.13
2022-11-29T02:13:04.577Z,18.38
2022-11-29T02:15:43.997Z,18.00
2022-11-29T02:18:16.879Z,17.52
2022-11-29T02:21:08.719Z,18.85
2022-11-29T02:24:09.594Z,19.35
2022-11-29T02:27:24.176Z,18.95
2022-11-29T02:30:10.722Z,19.33
2022-11-29T02:33:15.493Z,19.92
2022-11-29T02:36:20.138Z,19.50
2022-11-29T02:39:17.432Z,18.63
2022-11-29T02:42:06.917Z,17.67
2022-11-29T02:44:59.052Z,17.98
2022-11-29T02:47:36.135Z,16.90
2022-11-29T02:50:21.935Z,18.42
2022-11-29T02:53:03.464Z,17.65
2022-11-29T02:55:39.286Z,18.92
2022-11-29T02:58:19.576Z,18.48
2022-11-29T03:00:59.026Z,18.23
2022-11-29T03:03:34.770Z,17.08
2022-11-29T03:06:13.969Z,16.73
2022-11-29T03:08:51.430Z,18.00
2022-11-29T03:11:31.182Z,18.05
2022-11-29T03:14:15.104Z,17.38
2022-11-29T03:16:52.622Z,19.33
2022-11-29T03:19:52.234Z,18.30
2022-11-29T03:22:33.096Z,18.98
2022-11-29T03:25:08.888Z,18.08
2022-11-29T03:27:43.075Z,18.13
2022-11-29T03:30:15.380Z,19.73
2022-11-29T03:32:51.931Z,18.05
2022-11-29T03:35:26.699Z,18.42
2022-11-29T03:38:06.936Z,18.73
2022-11-29T03:40:46.786Z,19.38
2022-11-29T03:43:23.361Z,20.10
2022-11-29T03:45:57.677Z,18.73
2022-11-29T03:48:34.655Z,18.27
2022-11-29T03:51:08.685Z,19.13
2022-11-29T03:53:44.385Z,19.63
2022-11-29T03:56:29.915Z,19.90
2022-11-29T03:59:14.049Z,20.00
2022-11-29T04:02:10.104Z,19.08
2022-11-29T04:05:26.001Z,19.90
2022-11-29T04:08:22.440Z,20.63
2022-11-29T04:11:18.032Z,18.30
2022-11-29T04:14:18.866Z,19.23
2022-11-29T04:17:26.757Z,19.95
2022-11-29T04:20:47.974Z,18.33
2022-11-29T04:24:03.059Z,18.65
2022-11-29T04:27:04.132Z,20.17
2022-11-29T04:30:05.869Z,19.42
2022-11-29T04:33:19.009Z,19.45
2022-11-29T04:36:34.117Z,18.43
2022-11-29T04:39:51.580Z,18.58
2022-11-29T04:42:52.137Z,19.08
2022-11-29T04:45:53.034Z,20.05
2022-11-29T04:48:55.462Z,19.00
2022-11-29T04:51:48.365Z,18.73
2022-11-29T04:54:47.819Z,19.27
2022-11-29T04:57:45.644Z,19.58
2022-11-29T05:00:24.090Z,19.15
2022-11-29T05:03:06.396Z,19.08
2022-11-29T05:06:04.731Z,19.53
2022-11-29T05:22:04.765Z,18.30
2022-11-29T05:25:08.738Z,19.15
2022-11-29T05:27:55.590Z,18.77
2022-11-29T05:30:31.130Z,19.27
2022-11-29T05:33:13.557Z,19.63
2022-11-29T05:36:03.766Z,19.87
2022-11-29T05:38:52.827Z,19.17
2022-11-29T05:41:58.682Z,18.92
2022-11-29T05:44:39.117Z,18.05
2022-11-29T05:47:10.460Z,18.13
2022-11-29T05:49:58.763Z,19.02
2022-11-29T05:52:39.293Z,18.65
2022-11-29T05:55:34.425Z,19.40
2022-11-29T05:58:13.094Z,20.55
2022-11-29T06:00:51.922Z,20.52
2022-11-29T06:03:32.848Z,19.35
2022-11-29T06:06:10.279Z,20.33
2022-11-29T06:08:45.015Z,20.23
2022-11-29T06:11:36.163Z,19.23
2022-11-29T06:14:19.459Z,20.95
2022-11-29T06:17:06.315Z,20.92
2022-11-29T06:20:01.175Z,20.25
2022-11-29T06:22:55.962Z,21.92
2022-11-29T06:25:47.473Z,20.65
2022-11-29T06:28:38.277Z,21.15
2022-11-29T06:31:19.633Z,21.00
2022-11-29T06:34:03.702Z,22.02
2022-11-29T06:36:41.633Z,20.45
2022-11-29T06:39:18.759Z,21.33
2022-11-29T06:41:52.123Z,20.92
2022-11-29T06:44:25.787Z,19.95
2022-11-29T06:47:08.566Z,21.08
2022-11-29T06:49:49.534Z,20.33
2022-11-29T06:52:30.036Z,19.88
2022-11-29T06:55:11.727Z,20.33
2022-11-29T06:57:55.396Z,23.48
2022-11-29T07:00:42.549Z,22.27
2022-11-29T07:03:31.372Z,23.33
2022-11-29T07:06:03.272Z,23.17
2022-11-29T07:08:36.059Z,22.90
2022-11-29T07:11:14.384Z,23.58
2022-11-29T07:13:47.239Z,23.67
2022-11-29T07:16:24.574Z,23.00
2022-11-29T07:19:10.945Z,23.20
2022-11-29T07:21:55.752Z,21.23
2022-11-29T07:24:44.254Z,23.25
2022-11-29T07:27:20.928Z,21.65
2022-11-29T07:30:24.691Z,21.33
2022-11-29T07:36:24.424Z,22.08
2022-11-29T07:39:30.384Z,22.35
2022-11-29T07:42:26.852Z,21.83
2022-11-29T07:45:33.974Z,22.15
2022-11-29T07:48:15.249Z,23.45
2022-11-29T07:50:59.814Z,23.27
2022-11-29T07:53:50.877Z,21.23
2022-11-29T07:56:54.097Z,20.63
2022-11-29T07:59:26.042Z,20.15
2022-11-29T08:02:11.806Z,20.63
2022-11-29T08:04:57.276Z,22.00
2022-11-29T08:07:41.232Z,22.60
2022-11-29T08:10:21.478Z,20.02
2022-11-29T08:13:05.343Z,19.50
2022-11-29T08:15:56.602Z,19.05
2022-11-29T08:18:36.546Z,17.73
2022-11-29T08:24:31.639Z,18.98
2022-11-29T08:27:05.856Z,18.15
2022-11-29T08:29:46.443Z,18.00
2022-11-29T08:32:31.578Z,17.02
2022-11-29T08:38:08.406Z,18.92
2022-11-29T08:40:40.661Z,17.90
2022-11-29T08:43:18.793Z,18.70
2022-11-29T08:45:57.618Z,18.08
2022-11-29T08:48:35.299Z,18.02
2022-11-29T08:51:19.611Z,16.95
2022-11-29T08:53:52.151Z,16.77
2022-11-29T08:59:32.241Z,16.40
2022-11-29T09:02:10.306Z,17.27
2022-11-29T09:07:45.697Z,16.58
2022-11-29T09:10:20.567Z,18.98
2022-11-29T09:12:59.033Z,19.40
2022-11-29T09:15:36.046Z,17.98
2022-11-29T09:18:51.454Z,18.02
2022-11-29T09:21:34.112Z,16.23
2022-11-29T09:24:46.048Z,16.38
2022-11-29T09:30:23.681Z,15.48
2022-11-29T09:33:03.793Z,16.15
2022-11-29T09:35:45.589Z,15.40
2022-11-29T09:38:29.548Z,17.33
2022-11-29T09:41:22.157Z,15.55
2022-11-29T09:44:09.204Z,14.85
2022-11-29T09:46:55.755Z,16.52
2022-11-29T09:49:59.108Z,15.82
2022-11-29T09:52:50.747Z,15.55
2022-11-29T09:56:08.381Z,15.15
2022-11-29T09:58:54.906Z,15.30
2022-11-29T10:01:46.093Z,16.35
2022-11-29T10:04:24.804Z,16.98
2022-11-29T10:07:07.162Z,17.58
2022-11-29T10:10:06.379Z,17.85
2022-11-29T10:12:49.208Z,18.75
2022-11-29T10:15:47.238Z,19.42
2022-11-29T10:18:26.682Z,17.85
2022-11-29T10:21:16.421Z,16.98
2022-11-29T10:24:07.510Z,17.40
2022-11-29T10:26:47.587Z,15.35
2022-11-29T10:32:24.670Z,16.38
2022-11-29T10:35:05.842Z,16.58
2022-11-29T10:38:07.821Z,17.75
2022-11-29T10:40:40.803Z,15.85
2022-11-29T10:43:18.312Z,14.73
2022-11-29T10:46:23.959Z,16.90
2022-11-29T10:49:19.458Z,15.80
2022-11-29T10:52:11.794Z,14.88
2022-11-29T10:54:56.947Z,15.93
2022-11-29T10:57:47.464Z,15.90
2022-11-29T11:00:53.634Z,19.30
2022-11-29T11:03:40.789Z,19.35
2022-11-29T11:06:21.039Z,18.85
2022-11-29T11:09:01.775Z,18.35
2022-11-29T11:11:42.798Z,17.65
2022-11-29T11:14:27.502Z,24.13
2022-11-29T11:20:08.989Z,19.98
2022-11-29T11:22:47.422Z,19.58
2022-11-29T11:25:35.417Z,19.73
2022-11-29T11:28:37.737Z,19.88
2022-11-29T11:31:12.314Z,27.10
2022-11-29T11:33:49.940Z,28.83
2022-11-29T11:36:53.411Z,19.90
2022-11-29T11:39:41.880Z,22.23
2022-11-29T11:42:36.722Z,25.85
2022-11-29T11:45:27.886Z,22.05
2022-11-29T11:48:10.424Z,23.83
2022-11-29T11:51:20.673Z,31.50
2022-11-29T11:54:04.387Z,22.52
2022-11-29T11:56:48.022Z,19.48
2022-11-29T11:59:49.718Z,19.90
2022-11-29T12:02:51.587Z,23.73
2022-11-29T12:05:27.496Z,19.52
2022-11-29T12:08:08.932Z,19.23
2022-11-29T12:11:07.066Z,20.38
2022-11-29T12:13:54.513Z,18.55
2022-11-29T12:16:42.480Z,20.95
2022-11-29T12:19:24.346Z,17.75
2022-11-29T12:22:14.476Z,17.85
2022-11-29T12:25:28.907Z,17.25
2022-11-29T12:28:21.952Z,18.98
2022-11-29T12:31:06.215Z,17.45
2022-11-29T12:33:47.247Z,16.23
2022-11-29T12:36:39.709Z,16.10
2022-11-29T12:39:47.782Z,17.40
2022-11-29T12:42:57.103Z,16.42
2022-11-29T12:45:47.009Z,16.58
2022-11-29T12:51:33.353Z,14.70
2022-11-29T12:54:34.535Z,15.35
2022-11-29T12:57:23.815Z,16.58
2022-11-29T13:00:17.837Z,18.52
2022-11-29T13:03:15.444Z,29.40
2022-11-29T13:06:07.818Z,20.20
2022-11-29T13:12:13.639Z,15.90
2022-11-29T13:14:59.170Z,16.40
2022-11-29T13:17:57.300Z,18.95
2022-11-29T13:20:57.576Z,15.27
2022-11-29T13:24:07.992Z,14.75
2022-11-29T13:26:41.519Z,17.58
2022-11-29T13:29:30.496Z,16.85
2022-11-29T13:35:22.892Z,20.27
2022-11-29T13:38:26.788Z,16.75
2022-11-29T13:44:02.009Z,16.83
2022-11-29T13:46:58.456Z,16.92
2022-11-29T13:50:00.758Z,16.30
2022-11-29T13:52:49.464Z,15.23
2022-11-29T13:55:37.498Z,19.48
2022-11-29T13:58:39.429Z,17.25
2022-11-29T14:01:16.053Z,13.93
2022-11-29T14:03:53.843Z,15.38
2022-11-29T14:06:37.290Z,15.40
2022-11-29T14:09:34.775Z,15.48
2022-11-29T14:12:30.331Z,16.75
2022-11-29T14:15:19.640Z,13.75
2022-11-29T14:17:55.595Z,14.90
2022-11-29T14:21:15.090Z,15.18
2022-11-29T14:23:52.728Z,15.63
2022-11-29T14:26:43.783Z,16.52
2022-11-29T14:29:59.482Z,14.40
2022-11-29T14:32:42.813Z,14.88
2022-11-29T14:35:21.944Z,14.73
2022-11-29T14:38:01.262Z,15.23
2022-11-29T14:40:38.416Z,16.42
2022-11-29T14:43:19.656Z,16.75
2022-11-29T14:45:51.239Z,16.80
2022-11-29T14:48:53.082Z,16.83
2022-11-29T14:51:36.453Z,17.30
2022-11-29T14:56:50.799Z,18.70
2022-11-29T15:00:00.252Z,18.30
2022-11-29T15:02:46.075Z,16.63
2022-11-29T15:05:32.024Z,18.08
2022-11-29T15:08:16.773Z,20.98
2022-11-29T15:11:05.760Z,21.00
2022-11-29T15:14:06.157Z,20.20
2022-11-29T15:17:04.242Z,26.33
2022-11-29T15:20:22.526Z,34.55
2022-11-29T15:22:56.484Z,31.00
2022-11-29T15:25:32.167Z,24.95
2022-11-29T15:28:13.088Z,22.52
2022-11-29T15:30:48.182Z,25.25
2022-11-29T15:33:25.101Z,26.05
2022-11-29T15:36:11.772Z,26.70
2022-11-29T15:38:53.059Z,23.35
2022-11-29T15:41:30.129Z,20.55
2022-11-29T15:44:04.416Z,22.27
2022-11-29T15:46:44.811Z,23.67
2022-11-29T15:49:40.031Z,23.13
2022-11-29T15:52:20.319Z,21.02
2022-11-29T15:55:04.935Z,20.85
2022-11-29T15:57:42.970Z,21.67
2022-11-29T16:00:23.923Z,21.30
2022-11-29T16:03:03.019Z,20.13
2022-11-29T16:05:34.315Z,20.45
2022-11-29T16:08:09.528Z,18.80
2022-11-29T16:10:46.561Z,19.10
2022-11-29T16:13:38.386Z,18.90
2022-11-29T16:16:21.632Z,18.92
2022-11-29T16:21:27.754Z,18.75
2022-11-29T16:23:57.673Z,19.10
2022-11-29T16:26:31.998Z,20.00
2022-11-29T16:29:02.977Z,58.42
2022-11-29T16:31:34.907Z,55.30
2022-11-29T16:34:15.078Z,24.25
2022-11-29T16:36:44.219Z,22.55
2022-11-29T16:39:26.913Z,20.88
2022-11-29T16:42:11.212Z,24.00
2022-11-29T16:45:09.889Z,21.50
2022-11-29T16:47:54.220Z,20.20
2022-11-29T16:50:40.040Z,20.45
2022-11-29T16:53:36.506Z,22.10
2022-11-29T16:56:13.681Z,20.58
2022-11-29T16:59:25.255Z,22.45
2022-11-29T17:01:46.847Z,22.50
2022-11-29T17:04:23.920Z,22.70
2022-11-29T17:07:02.254Z,21.17
2022-11-29T17:09:39.356Z,22.08
2022-11-29T17:12:17.736Z,22.30
2022-11-29T17:14:51.241Z,21.30
2022-11-29T17:17:20.537Z,20.92
2022-11-29T17:19:51.915Z,23.92
2022-11-29T17:22:29.791Z,23.70
2022-11-29T17:25:05.258Z,22.58
2022-11-29T17:27:34.424Z,21.55
2022-11-29T17:30:06.151Z,24.60
2022-11-29T17:32:39.618Z,29.13
2022-11-29T17:35:11.017Z,24.38
2022-11-29T17:37:48.663Z,23.02
2022-11-29T17:40:23.967Z,23.35
2022-11-29T17:42:57.991Z,23.77
2022-11-29T17:45:29.988Z,20.27
2022-11-29T17:48:08.963Z,21.70
2022-11-29T17:50:43.662Z,33.95
2022-11-29T17:53:17.126Z,23.20
2022-11-29T17:55:47.391Z,24.73
2022-11-29T17:58:19.156Z,23.90
2022-11-29T18:00:51.870Z,20.77
2022-11-29T18:03:22.558Z,20.50
2022-11-29T18:05:56.698Z,21.98
2022-11-29T18:08:26.847Z,21.42
2022-11-29T18:11:07.491Z,23.58
2022-11-29T18:13:38.678Z,21.38
2022-11-29T18:16:11.327Z,25.55
2022-11-29T18:18:40.396Z,22.63
2022-11-29T18:21:14.965Z,22.55
2022-11-29T18:23:45.637Z,23.08
2022-11-29T18:26:16.703Z,22.35
2022-11-29T18:28:51.843Z,22.40
2022-11-29T18:31:31.604Z,22.45
2022-11-29T18:34:15.200Z,20.77
2022-11-29T18:36:46.139Z,22.33
2022-11-29T18:39:34.362Z,23.33
2022-11-29T18:42:09.787Z,22.63
2022-11-29T18:44:40.857Z,23.48
2022-11-29T18:47:12.236Z,23.92
2022-11-29T18:49:45.696Z,21.75
2022-11-29T18:52:23.803Z,22.52
2022-11-29T18:54:57.384Z,22.58
2022-11-29T18:57:27.922Z,23.60
2022-11-29T18:59:58.296Z,23.88
2022-11-29T19:02:34.391Z,22.38
2022-11-29T19:05:23.988Z,24.35
2022-11-29T19:07:55.445Z,23.30
2022-11-29T19:10:29.862Z,23.25
2022-11-29T19:13:07.555Z,26.15
2022-11-29T19:15:41.639Z,23.52
2022-11-29T19:18:33.565Z,24.40
2022-11-29T19:21:08.854Z,24.25
2022-11-29T19:23:43.629Z,28.85
2022-11-29T19:26:17.105Z,28.00
2022-11-29T19:28:54.289Z,26.70
2022-11-29T19:31:31.248Z,27.05
2022-11-29T19:34:05.302Z,25.48
2022-11-29T19:36:43.423Z,27.30
2022-11-29T19:39:15.668Z,26.45
2022-11-29T19:41:49.793Z,27.27
2022-11-29T19:44:22.937Z,23.30
2022-11-29T19:46:54.047Z,24.90
2022-11-29T19:49:34.204Z,22.88
2022-11-29T19:52:04.448Z,23.05
2022-11-29T19:54:47.375Z,23.85
2022-11-29T19:57:24.172Z,24.00
2022-11-29T19:59:58.843Z,24.15
2022-11-29T20:02:29.429Z,24.45
2022-11-29T20:05:01.014Z,24.50
2022-11-29T20:07:30.206Z,22.85
2022-11-29T20:10:01.770Z,23.33
2022-11-29T20:12:37.343Z,24.00
2022-11-29T20:15:09.296Z,21.80
2022-11-29T20:17:39.004Z,21.65
2022-11-29T20:20:10.700Z,23.27
2022-11-29T20:22:43.247Z,20.48
2022-11-29T20:25:13.107Z,22.30
2022-11-29T20:27:47.693Z,22.33
2022-11-29T20:30:21.912Z,21.65
2022-11-29T20:32:51.787Z,22.70
2022-11-29T20:35:22.207Z,21.40
2022-11-29T20:38:13.436Z,21.50
2022-11-29T20:41:02.481Z,22.40
2022-11-29T20:43:41.182Z,21.30
2022-11-29T20:46:12.614Z,23.25
2022-11-29T20:48:44.887Z,23.77
2022-11-29T20:51:26.245Z,25.77
2022-11-29T20:53:55.696Z,23.42
2022-11-29T20:56:26.441Z,23.98
2022-11-29T20:58:59.693Z,24.85
2022-11-29T21:01:28.764Z,24.13
2022-11-29T21:04:00.224Z,24.73
2022-11-29T21:06:35.556Z,24.35
2022-11-29T21:09:09.048Z,25.13
2022-11-29T21:11:39.645Z,26.02
2022-11-29T21:14:16.581Z,26.13
2022-11-29T21:16:46.519Z,26.63
2022-11-29T21:19:23.572Z,28.55
2022-11-29T21:22:05.056Z,27.17
2022-11-29T21:24:43.178Z,26.58
2022-11-29T21:27:16.595Z,26.13
2022-11-29T21:29:49.353Z,26.20
2022-11-29T21:32:25.658Z,25.48
2022-11-29T21:34:54.942Z,25.27
2022-11-29T21:37:29.263Z,25.25
2022-11-29T21:42:30.501Z,24.17
2022-11-29T21:45:00.656Z,24.48
2022-11-29T21:47:29.337Z,24.88
2022-11-29T21:49:57.771Z,26.02
2022-11-29T21:52:26.114Z,25.08
2022-11-29T21:54:54.644Z,25.58
2022-11-29T21:57:28.863Z,25.58
2022-11-29T21:59:58.749Z,23.15
2022-11-29T22:02:32.062Z,23.40
2022-11-29T22:05:05.977Z,23.27
2022-11-29T22:07:38.806Z,24.17
2022-11-29T22:10:14.851Z,20.30
2022-11-29T22:12:52.212Z,20.10
2022-11-29T22:15:25.081Z,18.73
2022-11-29T22:17:56.525Z,19.77
2022-11-29T22:20:25.708Z,19.27
2022-11-29T22:22:58.948Z,19.35
2022-11-29T22:25:38.896Z,19.45
2022-11-29T22:28:15.390Z,20.08
2022-11-29T22:30:43.869Z,19.80
2022-11-29T22:33:20.039Z,17.83
2022-11-29T22:35:53.015Z,19.13
2022-11-29T22:38:22.780Z,18.08
2022-11-29T22:40:51.968Z,18.67
2022-11-29T22:43:21.270Z,17.98
2022-11-29T22:45:55.544Z,19.30
2022-11-29T22:48:28.153Z,19.77
2022-11-29T22:51:06.851Z,19.25
2022-11-29T22:53:40.190Z,19.40
2022-11-29T22:56:11.798Z,18.38
2022-11-29T22:58:41.953Z,18.80
2022-11-29T23:01:15.300Z,18.25
2022-11-29T23:03:48.468Z,20.15
2022-11-29T23:06:23.236Z,18.77
2022-11-29T23:09:12.502Z,19.60
2022-11-29T23:11:41.841Z,18.65
2022-11-29T23:14:12.427Z,19.75
2022-11-29T23:16:43.191Z,20.33
2022-11-29T23:19:14.950Z,20.17
2022-11-29T23:21:47.931Z,19.90
2022-11-29T23:24:21.466Z,19.17
2022-11-29T23:26:50.501Z,19.75
2022-11-29T23:29:26.980Z,19.83
2022-11-29T23:32:03.495Z,20.30
2022-11-29T23:34:47.806Z,18.65
2022-11-29T23:37:16.711Z,20.45
2022-11-29T23:39:51.794Z,21.60
2022-11-29T23:42:23.453Z,21.48
2022-11-29T23:44:52.065Z,19.65
2022-11-29T23:47:22.887Z,20.73
2022-11-29T23:49:59.442Z,20.13
2022-11-29T23:52:29.637Z,19.42
2022-11-29T23:55:00.320Z,19.88
2022-11-29T23:57:33.156Z,19.88
